Time;durP1;ratioP1;P1;durP2;ratioP2;P2;SDS_P1;SDS_P2;PMS_P1;PMS_P2;Temp;Humidity;BMP_temperature;BMP_pressure;BME280_temperature;BME280_humidity;BME280_pressure;Samples;Min_cycle;Max_cycle;Signal;HPM_P1;HPM_P2
2023/01/14 00:01:03;;;;;;;;;;;;;;;25.67;32.15;95371.88;4998537;28;1655;-77
2023/01/14 00:03:30;;;;;;;;;;;;;;;25.68;32.47;95383.44;4999073;28;1669;-78
2023/01/14 00:05:56;;;;;;;;;;;;;;;25.65;32.46;95379.34;5031012;28;1670;-79
2023/01/14 00:08:21;;;;;;;;;;;;;;;25.68;32.61;95380.75;4992115;28;2049;-80
2023/01/14 00:10:46;;;;;;;;;;;;;;;25.68;32.70;95378.88;4995985;28;1638;-80
2023/01/14 00:13:12;;;;;;;;;;;;;;;25.70;32.39;95382.16;4993522;28;1564;-77
2023/01/14 00:15:37;;;;;;;;;;;;;;;25.70;32.29;95386.69;4993627;28;1388;-80
2023/01/14 00:18:02;;;;;;;;;;;;;;;25.70;32.68;95382.16;4992924;28;1483;-78
2023/01/14 00:20:30;;;;;;;;;;;;;;;25.71;32.69;95378.44;4992745;28;1433;-77
2023/01/14 00:22:55;;;;;;;;;;;;;;;25.71;32.59;95383.81;5000656;28;1646;-79
2023/01/14 00:25:20;;;;;;;;;;;;;;;25.72;32.52;95381.94;4996454;28;1539;-77
2023/01/14 00:27:45;;;;;;;;;;;;;;;25.71;32.75;95374.94;4992333;28;1906;-80
2023/01/14 00:30:11;;;;;;;;;;;;;;;25.70;32.72;95382.16;4981572;28;1628;-77
2023/01/14 00:32:36;;;;;;;;;;;;;;;25.69;33.25;95375.13;4995933;28;1680;-79
2023/01/14 00:35:01;;;;;;;;;;;;;;;25.82;33.12;95373.31;5005692;28;1743;-77
2023/01/14 00:37:27;;;;;;;;;;;;;;;25.89;32.73;95364.13;5001130;28;1710;-83
2023/01/14 00:39:52;;;;;;;;;;;;;;;25.93;32.70;95367.19;4994341;28;1770;-78
2023/01/14 00:42:17;;;;;;;;;;;;;;;25.97;32.76;95371.84;4991969;28;1746;-81
2023/01/14 00:44:42;;;;;;;;;;;;;;;26.04;32.46;95371.75;4995399;28;1731;-78
2023/01/14 00:47:08;;;;;;;;;;;;;;;25.99;32.45;95374.34;4995245;28;1702;-79
2023/01/14 00:49:33;;;;;;;;;;;;;;;25.94;32.63;95363.44;4994698;28;1911;-78
2023/01/14 00:52:00;;;;;;;;;;;;;;;25.86;32.54;95361.09;5000970;28;1497;-74
2023/01/14 00:54:26;;;;;;;;;;;;;;;25.89;32.83;95363.31;4997588;28;1683;-79
2023/01/14 00:56:51;;;;;;;;;;;;;;;25.83;32.84;95366.94;5003313;28;1667;-80
2023/01/14 00:59:21;;;;;;;;;;;;;;;25.80;32.87;95363.59;5006641;28;1651;-78
2023/01/14 01:01:47;;;;;;;;;;;;;;;25.81;32.93;95353.66;5005372;28;1586;-83
2023/01/14 01:04:12;;;;;;;;;;;;;;;25.79;32.95;95361.97;4990400;28;1738;-80
2023/01/14 01:06:39;;;;;;;;;;;;;;;25.77;32.87;95358.69;4995008;28;1580;-87
2023/01/14 01:09:04;;;;;;;;;;;;;;;25.76;32.99;95367.00;5002317;28;1894;-85
2023/01/14 01:11:30;;;;;;;;;;;;;;;25.77;33.43;95364.06;4998676;28;1683;-84
2023/01/14 01:13:55;;;;;;;;;;;;;;;25.77;33.48;95364.06;5001428;28;1748;-77
2023/01/14 01:16:23;;;;;;;;;;;;;;;25.80;33.26;95358.22;4992433;28;1695;-77
2023/01/14 01:18:49;;;;;;;;;;;;;;;25.84;33.18;95352.41;4994971;28;1652;-77
2023/01/14 01:21:15;;;;;;;;;;;;;;;25.85;33.27;95359.47;4998395;28;1645;-76
2023/01/14 01:23:41;;;;;;;;;;;;;;;25.85;33.12;95360.28;4994777;28;1601;-77
2023/01/14 01:26:09;;;;;;;;;;;;;;;25.88;33.05;95364.38;4996252;28;1686;-73
2023/01/14 01:28:35;;;;;;;;;;;;;;;25.85;33.14;95354.91;4988869;28;1961;-77
2023/01/14 01:31:05;;;;;;;;;;;;;;;25.80;33.48;95352.84;4996555;28;1654;-79
2023/01/14 01:33:30;;;;;;;;;;;;;;;25.81;33.40;95350.97;4999021;28;1795;-81
2023/01/14 01:36:00;;;;;;;;;;;;;;;25.81;33.30;95353.66;4998604;28;1556;-80
2023/01/14 01:38:25;;;;;;;;;;;;;;;25.80;33.39;95352.84;4983954;28;1478;-78
2023/01/14 01:40:51;;;;;;;;;;;;;;;25.83;33.34;95350.81;4992529;28;1510;-79
2023/01/14 01:43:17;;;;;;;;;;;;;;;25.83;33.30;95343.53;4995379;28;1709;-78
2023/01/14 01:45:49;;;;;;;;;;;;;;;25.82;33.06;95346.44;4994363;28;1632;-78
2023/01/14 01:48:21;;;;;;;;;;;;;;;25.82;33.15;95346.44;4993006;28;1930;-78
2023/01/14 01:50:49;;;;;;;;;;;;;;;25.83;33.46;95342.72;4984739;28;1730;-78
2023/01/14 01:53:15;;;;;;;;;;;;;;;25.83;33.09;95340.03;4996857;28;1667;-78
2023/01/14 01:55:41;;;;;;;;;;;;;;;25.81;33.08;95337.53;5000938;28;1522;-78
2023/01/14 01:58:08;;;;;;;;;;;;;;;25.83;33.42;95327.41;5003679;28;1574;-78
2023/01/14 02:00:33;;;;;;;;;;;;;;;25.82;33.09;95319.56;4997360;28;1585;-75
2023/01/14 02:03:04;;;;;;;;;;;;;;;25.81;33.30;95318.72;4992050;28;1566;-77
2023/01/14 02:05:29;;;;;;;;;;;;;;;25.80;33.38;95312.53;4999051;28;1606;-77
2023/01/14 02:07:56;;;;;;;;;;;;;;;25.83;33.17;95321.22;5025093;28;1903;-76
2023/01/14 02:10:24;;;;;;;;;;;;;;;25.83;33.21;95315.84;5007195;28;1588;-77
2023/01/14 02:12:59;;;;;;;;;;;;;;;25.82;33.06;95319.56;4997894;28;1658;-77
2023/01/14 02:15:39;;;;;;;;;;;;;;;25.82;33.14;95324.94;5003030;28;1698;-77
2023/01/14 02:18:04;;;;;;;;;;;;;;;25.82;33.43;95330.31;4992521;28;1663;-77
2023/01/14 02:20:36;;;;;;;;;;;;;;;25.82;33.27;95316.88;4993226;28;1719;-77
2023/01/14 02:23:20;;;;;;;;;;;;;;;25.82;33.39;95322.25;4987010;28;1622;-77
2023/01/14 02:25:51;;;;;;;;;;;;;;;25.79;33.32;95321.66;4994045;28;1480;-76
2023/01/14 02:28:26;;;;;;;;;;;;;;;25.80;33.42;95320.59;4999512;28;1956;-77
2023/01/14 02:30:54;;;;;;;;;;;;;;;25.79;33.50;95324.34;5007479;28;1798;-79
2023/01/14 02:33:19;;;;;;;;;;;;;;;25.80;33.37;95322.47;5006233;28;1737;-77
2023/01/14 02:35:44;;;;;;;;;;;;;;;25.80;33.24;95320.59;4982290;28;1670;-77
2023/01/14 02:38:15;;;;;;;;;;;;;;;25.82;33.24;95328.44;4993022;28;1627;-77
2023/01/14 02:40:50;;;;;;;;;;;;;;;25.83;33.26;95321.22;4994740;28;1684;-77
2023/01/14 02:46:12;;;;;;;;;;;;;;;25.82;33.47;95324.94;4988154;28;1536;-77
2023/01/14 02:48:38;;;;;;;;;;;;;;;25.81;33.40;95332.16;4987947;28;1906;-78
2023/01/14 02:51:04;;;;;;;;;;;;;;;25.76;33.49;95330.19;4993025;28;1454;-81
2023/01/14 02:53:29;;;;;;;;;;;;;;;25.71;33.92;95330.06;4994107;28;1557;-78
2023/01/14 02:55:55;;;;;;;;;;;;;;;25.78;33.89;95325.38;4992033;28;1630;-75
2023/01/14 02:58:26;;;;;;;;;;;;;;;25.80;33.93;95323.28;4984213;28;1480;-75
2023/01/14 03:00:52;;;;;;;;;;;;;;;25.84;33.58;95320.16;4991785;28;1665;-74
2023/01/14 03:03:20;;;;;;;;;;;;;;;25.83;33.57;95315.84;5006871;28;1685;-75
2023/01/14 03:05:51;;;;;;;;;;;;;;;25.84;33.54;95328.22;5004130;28;1557;-75
2023/01/14 03:08:36;;;;;;;;;;;;;;;25.82;33.92;95324.94;4990392;28;1902;-75
2023/01/14 03:11:03;;;;;;;;;;;;;;;25.83;33.66;95327.41;5005396;28;1604;-75
2023/01/14 03:13:42;;;;;;;;;;;;;;;25.83;34.05;95315.84;4992850;28;1589;-75
2023/01/14 03:16:11;;;;;;;;;;;;;;;25.82;33.92;95333.81;4995692;28;1563;-76
2023/01/14 03:18:55;;;;;;;;;;;;;;;25.83;33.94;95323.91;5006119;28;1658;-75
2023/01/14 03:21:22;;;;;;;;;;;;;;;25.83;34.10;95326.59;4979962;28;1805;-76
2023/01/14 03:23:51;;;;;;;;;;;;;;;25.84;33.90;95320.16;4993156;28;1700;-75
2023/01/14 03:26:18;;;;;;;;;;;;;;;25.84;34.40;95322.84;4990214;28;1720;-76
2023/01/14 03:28:47;;;;;;;;;;;;;;;25.82;34.21;95333.00;4991928;28;1957;-74
2023/01/14 03:31:14;;;;;;;;;;;;;;;25.82;34.27;95330.31;4988294;28;1567;-75
2023/01/14 03:33:51;;;;;;;;;;;;;;;25.82;34.34;95320.38;4987042;28;1696;-75
2023/01/14 03:36:18;;;;;;;;;;;;;;;25.84;34.50;95317.47;4991827;28;1562;-74
2023/01/14 03:38:48;;;;;;;;;;;;;;;25.86;34.29;95324.28;4993774;28;1756;-74
2023/01/14 03:42:17;;;;;;;;;;;;;;;25.86;34.25;95320.75;4995667;28;1662;-74
2023/01/14 03:44:03;;;;;;;;;;;;;;;25.87;34.27;95319.72;4982698;28;1469;-74
2023/01/14 03:46:28;;;;;;;;;;;;;;;25.86;34.47;95324.28;4991126;28;1414;-74
2023/01/14 03:48:54;;;;;;;;;;;;;;;25.85;34.27;95324.50;5003182;28;1965;-74
2023/01/14 03:51:34;;;;;;;;;;;;;;;25.87;34.51;95333.16;4991916;28;1734;-74
2023/01/14 03:54:21;;;;;;;;;;;;;;;25.87;34.42;95333.16;4993145;28;1712;-74
2023/01/14 03:57:05;;;;;;;;;;;;;;;25.85;34.36;95329.91;4993304;28;1480;-74
2023/01/14 03:59:47;;;;;;;;;;;;;;;25.86;34.62;95323.47;4994352;28;1652;-74
2023/01/14 04:02:13;;;;;;;;;;;;;;;25.84;34.55;95317.47;4999100;28;1671;-74
2023/01/14 04:04:39;;;;;;;;;;;;;;;25.84;34.48;95325.53;4991975;28;1523;-74
2023/01/14 04:07:05;;;;;;;;;;;;;;;25.84;34.34;95318.28;4983215;28;1165;-74
2023/01/14 04:09:30;;;;;;;;;;;;;;;25.85;34.61;95324.50;4992801;28;1910;-73
2023/01/14 04:11:55;;;;;;;;;;;;;;;25.87;34.16;95322.41;4992160;28;1743;-73
2023/01/14 04:17:04;;;;;;;;;;;;;;;25.88;34.37;95318.69;4988209;28;1664;-74
2023/01/14 04:19:29;;;;;;;;;;;;;;;25.87;34.39;95311.66;5003598;28;1745;-74
2023/01/14 04:21:55;;;;;;;;;;;;;;;25.88;34.53;95310.63;4998069;28;1905;-74
2023/01/14 04:24:20;;;;;;;;;;;;;;;25.88;34.68;95316.81;4997913;28;1639;-73
2023/01/14 04:26:45;;;;;;;;;;;;;;;25.88;34.58;95310.63;4993461;28;1646;-73
2023/01/14 04:29:10;;;;;;;;;;;;;;;25.88;34.66;95307.94;4995187;28;1965;-74
2023/01/14 04:31:36;;;;;;;;;;;;;;;25.88;34.61;95316.81;4992845;28;1772;-74
2023/01/14 04:34:01;;;;;;;;;;;;;;;25.85;34.56;95311.06;4980858;28;1560;-73
2023/01/14 04:36:26;;;;;;;;;;;;;;;25.86;34.51;95315.41;5000055;28;1602;-74
2023/01/14 04:38:52;;;;;;;;;;;;;;;25.88;34.57;95310.63;5007268;28;1534;-74
2023/01/14 04:44:00;;;;;;;;;;;;;;;25.76;35.06;95314.06;4995741;28;1719;-75
2023/01/14 04:46:26;;;;;;;;;;;;;;;25.80;35.13;95311.72;4994995;28;1686;-75
2023/01/14 04:48:51;;;;;;;;;;;;;;;25.83;34.89;95300.53;4997299;28;1938;-74
2023/01/14 04:51:16;;;;;;;;;;;;;;;25.91;34.69;95307.47;4988951;28;2065;-75
2023/01/14 04:53:42;;;;;;;;;;;;;;;25.93;34.70;95305.38;4990487;28;1730;-75
2023/01/14 04:56:07;;;;;;;;;;;;;;;25.94;34.90;95307.81;4993784;28;1425;-75
2023/01/14 04:58:32;;;;;;;;;;;;;;;25.95;34.73;95308.63;4995045;28;1585;-75
2023/01/14 05:00:57;;;;;;;;;;;;;;;25.95;34.97;95308.63;4993711;28;1831;-75
2023/01/14 05:03:23;;;;;;;;;;;;;;;25.97;34.78;95306.53;4986255;28;1668;-75
2023/01/14 05:05:48;;;;;;;;;;;;;;;25.94;35.12;95313.19;4996720;28;1881;-75
2023/01/14 05:08:13;;;;;;;;;;;;;;;25.93;34.72;95308.88;5002050;28;1910;-75
2023/01/14 05:10:39;;;;;;;;;;;;;;;25.96;34.74;95312.97;5003060;28;1651;-75
2023/01/14 05:13:07;;;;;;;;;;;;;;;25.95;34.83;95309.44;4993743;28;1670;-75
2023/01/14 05:15:37;;;;;;;;;;;;;;;25.94;35.07;95323.94;4992274;28;1447;-75
2023/01/14 05:18:03;;;;;;;;;;;;;;;25.95;34.64;95311.31;4994434;28;1730;-76
2023/01/14 05:20:29;;;;;;;;;;;;;;;25.94;34.96;95307.81;4992554;28;1770;-75
2023/01/14 05:22:59;;;;;;;;;;;;;;;25.94;35.03;95309.69;4977994;28;1697;-76
2023/01/14 05:25:25;;;;;;;;;;;;;;;25.91;34.87;95315.53;4989870;28;1642;-76
2023/01/14 05:27:50;;;;;;;;;;;;;;;25.98;34.67;95316.22;4989701;28;1618;-74
2023/01/14 05:30:15;;;;;;;;;;;;;;;25.98;34.62;95317.03;4996102;28;1907;-73
2023/01/14 05:32:41;;;;;;;;;;;;;;;25.97;34.76;95319.97;4999039;28;1638;-73
2023/01/14 05:35:06;;;;;;;;;;;;;;;25.94;34.60;95315.06;5002769;28;1381;-73
2023/01/14 05:37:32;;;;;;;;;;;;;;;25.93;34.63;95316.13;4993086;28;1453;-74
2023/01/14 05:39:58;;;;;;;;;;;;;;;25.92;34.50;95323.34;5002622;28;1400;-74
2023/01/14 05:47:51;;;;;;;;;;;;;;;25.87;34.26;95317.88;4997212;28;1353;-73
2023/01/14 05:50:17;;;;;;;;;;;;;;;25.82;34.71;95311.50;4996505;28;1906;-73
2023/01/14 05:52:42;;;;;;;;;;;;;;;25.87;34.41;95319.72;5001217;28;1419;-73
2023/01/14 05:55:07;;;;;;;;;;;;;;;25.84;34.73;95312.09;4999840;28;1629;-72
2023/01/14 05:57:32;;;;;;;;;;;;;;;25.83;34.70;95319.34;5000252;28;1478;-73
2023/01/14 05:59:58;;;;;;;;;;;;;;;25.75;35.02;95327.72;4989624;28;1484;-74
2023/01/14 06:07:53;;;;;;;;;;;;;;;24.31;25.40;95324.75;4994067;28;1728;-74
2023/01/14 06:10:19;;;;;;;;;;;;;;;22.77;25.43;95324.03;4991747;28;1903;-74
2023/01/14 06:13:02;;;;;;;;;;;;;;;21.91;26.17;95325.00;5003631;28;1722;-74
2023/01/14 06:15:34;;;;;;;;;;;;;;;21.25;26.07;95331.88;4992501;28;1654;-75
2023/01/14 06:18:13;;;;;;;;;;;;;;;20.60;26.68;95327.94;4996301;28;1763;-74
2023/01/14 06:20:39;;;;;;;;;;;;;;;20.34;27.03;95326.75;4992066;28;1583;-76
2023/01/14 06:23:09;;;;;;;;;;;;;;;20.05;27.00;95327.00;4962621;28;1614;-77
2023/01/14 06:25:35;;;;;;;;;;;;;;;19.81;27.25;95323.75;4992666;28;2048;-75
2023/01/14 06:28:01;;;;;;;;;;;;;;;19.74;27.13;95321.00;4992849;28;1903;-77
2023/01/14 06:30:29;;;;;;;;;;;;;;;19.56;27.13;95325.97;4990992;28;1603;-77
2023/01/14 06:32:54;;;;;;;;;;;;;;;19.48;27.52;95323.44;4989439;28;1490;-76
2023/01/14 06:35:20;;;;;;;;;;;;;;;19.39;27.75;95328.06;4986742;28;1652;-74
2023/01/14 06:37:45;;;;;;;;;;;;;;;19.39;27.63;95335.22;4991899;28;1602;-75
2023/01/14 06:40:12;;;;;;;;;;;;;;;19.34;28.02;95338.44;4999355;28;1386;-73
2023/01/14 06:42:38;;;;;;;;;;;;;;;19.51;27.75;95333.69;4992845;28;1593;-73
2023/01/14 06:45:03;;;;;;;;;;;;;;;19.41;28.49;95349.13;5015431;28;1623;-73
2023/01/14 06:47:28;;;;;;;;;;;;;;;19.57;27.88;95348.06;4995505;28;1622;-70
2023/01/14 06:49:54;;;;;;;;;;;;;;;19.49;27.27;95347.16;4990909;28;1906;-73
2023/01/14 06:52:19;;;;;;;;;;;;;;;19.38;27.84;95334.41;4990124;28;1589;-72
2023/01/14 06:54:47;;;;;;;;;;;;;;;19.43;27.45;95337.28;4992289;28;1704;-72
2023/01/14 06:57:12;;;;;;;;;;;;;;;19.45;29.01;95324.63;4981790;28;1341;-70
2023/01/14 06:59:37;;;;;;;;;;;;;;;20.49;30.13;95339.97;4991420;28;1732;-71
2023/01/14 07:02:02;;;;;;;;;;;;;;;21.29;29.73;95343.00;4993302;28;1707;-74
2023/01/14 07:04:27;;;;;;;;;;;;;;;21.93;29.73;95344.31;4995039;28;1616;-74
2023/01/14 07:06:53;;;;;;;;;;;;;;;22.36;29.62;95341.22;4989438;28;1702;-74
2023/01/14 07:09:19;;;;;;;;;;;;;;;22.65;29.70;95347.94;4984209;28;1958;-74
2023/01/14 07:11:44;;;;;;;;;;;;;;;22.86;29.32;95354.88;4992458;28;1651;-74
2023/01/14 07:14:09;;;;;;;;;;;;;;;23.02;29.18;95350.94;4992354;28;1482;-73
2023/01/14 07:16:34;;;;;;;;;;;;;;;23.15;30.13;95353.56;4991808;28;1499;-73
2023/01/14 07:19:00;;;;;;;;;;;;;;;23.34;30.28;95352.63;4984781;28;1723;-75
2023/01/14 07:21:25;;;;;;;;;;;;;;;23.54;30.77;95363.22;5022203;28;1785;-73
2023/01/14 07:23:50;;;;;;;;;;;;;;;23.54;28.85;95359.75;4998349;28;1646;-73
2023/01/14 07:26:16;;;;;;;;;;;;;;;23.10;29.34;95356.84;5011606;28;859;-72
2023/01/14 07:28:41;;;;;;;;;;;;;;;23.32;30.26;95364.59;5011620;28;1902;-73
2023/01/14 07:31:07;;;;;;;;;;;;;;;23.45;30.27;95367.22;4994066;28;1563;-73
2023/01/14 07:33:32;;;;;;;;;;;;;;;23.60;30.18;95371.44;4991413;28;923;-72
2023/01/14 07:35:58;;;;;;;;;;;;;;;23.69;30.25;95370.16;4990068;28;1224;-72
2023/01/14 07:38:23;;;;;;;;;;;;;;;23.77;30.18;95372.59;4990289;28;912;-73
2023/01/14 07:40:49;;;;;;;;;;;;;;;23.83;30.21;95366.38;4991159;28;887;-72
2023/01/14 07:43:15;;;;;;;;;;;;;;;23.91;30.07;95367.97;4982028;28;945;-72
2023/01/14 07:45:40;;;;;;;;;;;;;;;23.95;29.92;95369.97;4989553;28;1434;-73
2023/01/14 07:48:06;;;;;;;;;;;;;;;23.98;29.93;95379.44;4991880;28;1956;-73
2023/01/14 07:50:31;;;;;;;;;;;;;;;24.01;29.88;95369.09;4991960;28;827;-72
2023/01/14 07:52:57;;;;;;;;;;;;;;;24.05;29.98;95368.66;4986408;28;1154;-72
2023/01/14 07:55:23;;;;;;;;;;;;;;;24.06;29.99;95375.69;4990603;28;1063;-73
2023/01/14 07:57:48;;;;;;;;;;;;;;;24.07;29.85;95377.31;4993998;28;803;-73
2023/01/14 08:00:14;;;;;;;;;;;;;;;24.11;29.99;95381.22;5024819;28;1299;-73
2023/01/14 08:02:39;;;;;;;;;;;;;;;24.13;29.87;95376.44;4993875;28;796;-72
2023/01/14 08:05:05;;;;;;;;;;;;;;;24.16;29.63;95381.34;4983887;28;946;-73
2023/01/14 08:07:30;;;;;;;;;;;;;;;24.18;29.93;95379.28;4993541;28;827;-73
2023/01/14 08:09:55;;;;;;;;;;;;;;;24.19;29.68;95380.91;4995982;28;1964;-74
2023/01/14 08:12:20;;;;;;;;;;;;;;;24.22;29.71;95391.22;4995629;28;938;-74
2023/01/14 08:14:46;;;;;;;;;;;;;;;24.22;29.72;95383.19;4995130;28;820;-73
2023/01/14 08:17:11;;;;;;;;;;;;;;;24.21;29.78;95381.53;4985570;28;1079;-73
2023/01/14 08:19:36;;;;;;;;;;;;;;;24.23;29.87;95393.66;4994908;28;958;-73
2023/01/14 08:22:01;;;;;;;;;;;;;;;24.27;29.89;95394.03;4995172;28;848;-73
2023/01/14 08:24:27;;;;;;;;;;;;;;;24.28;29.71;95398.38;4995369;28;882;-73
2023/01/14 08:26:52;;;;;;;;;;;;;;;24.30;29.64;95393.59;4990197;28;985;-73
2023/01/14 08:29:17;;;;;;;;;;;;;;;24.30;29.66;95396.28;4990102;28;1898;-74
2023/01/14 08:31:43;;;;;;;;;;;;;;;24.29;29.74;95400.03;4995170;28;1353;-73
2023/01/14 08:34:08;;;;;;;;;;;;;;;24.30;29.69;95401.66;4993665;28;1280;-74
2023/01/14 08:36:34;;;;;;;;;;;;;;;24.31;29.60;95400.63;5025450;28;1378;-74
2023/01/14 08:38:59;;;;;;;;;;;;;;;24.34;29.76;95405.56;4984138;28;1321;-74
2023/01/14 08:41:24;;;;;;;;;;;;;;;24.35;29.67;95395.63;4994795;28;825;-74
2023/01/14 08:43:51;;;;;;;;;;;;;;;24.37;29.84;95397.06;4994574;28;898;-74
2023/01/14 08:46:16;;;;;;;;;;;;;;;24.38;29.65;95395.19;4993184;28;1204;-74
2023/01/14 08:48:42;;;;;;;;;;;;;;;24.38;29.64;95401.38;4994605;28;1914;-74
2023/01/14 08:51:09;;;;;;;;;;;;;;;24.40;29.80;95398.50;4983378;28;1200;-74
2023/01/14 08:53:35;;;;;;;;;;;;;;;24.43;29.68;95398.88;4994484;28;831;-74
2023/01/14 08:56:01;;;;;;;;;;;;;;;24.44;29.56;95403.22;4993169;28;1201;-74
2023/01/14 08:58:26;;;;;;;;;;;;;;;24.45;29.65;95398.69;4993783;28;879;-74
2023/01/14 09:00:59;;;;;;;;;;;;;;;24.45;29.68;95388.78;4989905;28;1024;-74
2023/01/14 09:03:26;;;;;;;;;;;;;;;24.48;29.67;95395.56;4988479;28;1056;-74
2023/01/14 09:05:55;;;;;;;;;;;;;;;24.50;29.88;95392.66;4992614;28;1181;-74
2023/01/14 09:19:16;;;;;;;;;;;;;;;24.50;29.76;95371.19;4993978;28;794;-74
2023/01/14 09:21:41;;;;;;;;;;;;;;;24.52;30.00;95375.28;4993594;28;950;-74
2023/01/14 09:24:06;;;;;;;;;;;;;;;24.52;29.89;95366.44;4984868;28;1169;-74
2023/01/14 09:26:32;;;;;;;;;;;;;;;24.53;29.73;95370.75;4994137;28;989;-74
2023/01/14 09:28:57;;;;;;;;;;;;;;;24.54;29.62;95364.34;5024933;28;1965;-74
2023/01/14 09:31:22;;;;;;;;;;;;;;;24.55;29.65;95357.94;4992504;28;1174;-74
2023/01/14 09:33:47;;;;;;;;;;;;;;;24.57;29.70;95351.31;4993733;28;954;-74
2023/01/14 09:36:13;;;;;;;;;;;;;;;24.56;29.71;95356.88;4983578;28;1323;-74
2023/01/14 09:38:38;;;;;;;;;;;;;;;24.58;29.80;95361.00;4993667;28;800;-74
2023/01/14 09:41:03;;;;;;;;;;;;;;;24.59;29.82;95354.59;5024655;28;1323;-74
2023/01/14 09:43:30;;;;;;;;;;;;;;;24.59;29.68;95359.13;5024183;28;1411;-74
2023/01/14 09:45:59;;;;;;;;;;;;;;;24.59;29.73;95356.44;4990745;28;1005;-74
2023/01/14 09:48:26;;;;;;;;;;;;;;;24.61;29.68;95362.41;4986761;28;1902;-74
2023/01/14 09:51:06;;;;;;;;;;;;;;;24.58;29.86;95355.63;4992141;28;1177;-74
2023/01/14 09:53:31;;;;;;;;;;;;;;;24.60;29.71;95355.41;4993958;28;824;-74
2023/01/14 09:56:01;;;;;;;;;;;;;;;24.61;29.93;95354.34;4993593;28;884;-74
2023/01/14 09:58:37;;;;;;;;;;;;;;;24.60;29.74;95348.19;4981959;28;1190;-74
2023/01/14 10:01:02;;;;;;;;;;;;;;;24.63;29.73;95349.59;4993516;28;895;-74
2023/01/14 10:03:34;;;;;;;;;;;;;;;24.64;29.93;95345.88;5024786;28;1223;-74
2023/01/14 10:06:10;;;;;;;;;;;;;;;24.60;29.74;95350.06;4993037;28;953;-75
2023/01/14 10:08:40;;;;;;;;;;;;;;;24.64;29.79;95352.03;4989363;28;1898;-74
2023/01/14 10:11:06;;;;;;;;;;;;;;;24.63;29.83;95339.69;4986129;28;1169;-74
2023/01/14 10:13:37;;;;;;;;;;;;;;;24.64;29.88;95341.31;4992707;28;894;-75
2023/01/14 10:16:14;;;;;;;;;;;;;;;24.66;29.75;95338.41;4993306;28;875;-74
2023/01/14 10:18:46;;;;;;;;;;;;;;;24.63;29.81;95328.13;5023640;28;1357;-74
2023/01/14 10:21:17;;;;;;;;;;;;;;;24.65;29.74;95328.75;4982126;28;1229;-74
2023/01/14 10:23:42;;;;;;;;;;;;;;;24.63;29.99;95328.97;4993063;28;918;-74
2023/01/14 10:26:18;;;;;;;;;;;;;;;24.66;29.74;95327.69;4992581;28;858;-73
2023/01/14 10:28:45;;;;;;;;;;;;;;;24.62;30.03;95326.50;4991208;28;1969;-73
2023/01/14 10:31:16;;;;;;;;;;;;;;;24.64;29.90;95330.59;4992484;28;1128;-73
2023/01/14 10:33:41;;;;;;;;;;;;;;;24.62;30.03;95321.16;4984463;28;1077;-74
2023/01/14 10:36:13;;;;;;;;;;;;;;;24.63;29.79;95322.78;5023497;28;1291;-73
2023/01/14 10:38:42;;;;;;;;;;;;;;;24.63;29.87;95320.91;4992273;28;878;-73
2023/01/14 10:41:10;;;;;;;;;;;;;;;24.63;30.03;95320.91;4991899;28;878;-73
2023/01/14 10:43:37;;;;;;;;;;;;;;;24.65;30.01;95312.66;4983490;28;1129;-73
2023/01/14 10:46:03;;;;;;;;;;;;;;;24.64;30.05;95319.03;4991161;28;1316;-74
2023/01/14 10:48:34;;;;;;;;;;;;;;;24.65;29.87;95308.09;4991758;28;1906;-73
2023/01/14 10:51:19;;;;;;;;;;;;;;;24.68;29.80;95314.88;4992741;28;949;-74
2023/01/14 10:53:44;;;;;;;;;;;;;;;24.64;29.86;95313.66;4992721;28;946;-73
2023/01/14 10:56:09;;;;;;;;;;;;;;;24.65;29.99;95309.97;4982547;28;1389;-72
2023/01/14 10:58:37;;;;;;;;;;;;;;;24.65;30.02;95304.59;4992258;28;826;-73
2023/01/14 11:01:04;;;;;;;;;;;;;;;24.64;30.02;95302.94;4992078;28;843;-73
2023/01/14 11:03:34;;;;;;;;;;;;;;;24.66;29.88;95295.50;4991325;28;771;-73
2023/01/14 11:06:02;;;;;;;;;;;;;;;24.66;29.97;95296.31;4984910;28;1348;-73
2023/01/14 11:08:33;;;;;;;;;;;;;;;24.64;29.82;95292.22;4987509;28;1898;-73
2023/01/14 11:11:03;;;;;;;;;;;;;;;24.65;29.85;95291.19;4991853;28;862;-73
2023/01/14 11:13:29;;;;;;;;;;;;;;;24.65;30.02;95283.13;4992075;28;874;-73
2023/01/14 11:15:54;;;;;;;;;;;;;;;24.63;30.01;95282.53;4991971;28;930;-73
2023/01/14 11:18:43;;;;;;;;;;;;;;;24.63;30.01;95286.03;4981718;28;1201;-73
2023/01/14 11:21:16;;;;;;;;;;;;;;;24.62;30.12;95284.41;4992739;28;1527;-74
2023/01/14 11:24:01;;;;;;;;;;;;;;;24.63;30.16;95287.91;4991902;28;843;-73
2023/01/14 11:26:28;;;;;;;;;;;;;;;24.62;30.08;95288.97;4990851;28;879;-73
2023/01/14 11:29:01;;;;;;;;;;;;;;;24.59;30.06;95295.59;4982392;28;1902;-73
2023/01/14 11:31:28;;;;;;;;;;;;;;;24.58;30.29;95288.56;4991470;28;1083;-74
2023/01/14 11:33:53;;;;;;;;;;;;;;;24.57;30.13;95297.66;4990170;28;1296;-73
2023/01/14 11:36:23;;;;;;;;;;;;;;;24.57;30.22;95296.84;4991990;28;1230;-73
2023/01/14 11:38:49;;;;;;;;;;;;;;;24.56;30.21;95296.03;4992114;28;878;-73
2023/01/14 11:41:32;;;;;;;;;;;;;;;24.58;30.13;95293.94;4980877;28;1398;-74
2023/01/14 11:44:17;;;;;;;;;;;;;;;24.58;30.36;95295.78;4991963;28;811;-73
2023/01/14 11:46:44;;;;;;;;;;;;;;;24.57;30.08;95297.66;4991781;28;968;-73
2023/01/14 11:49:12;;;;;;;;;;;;;;;24.58;30.25;95290.44;4991142;28;1918;-73
2023/01/14 11:51:40;;;;;;;;;;;;;;;24.57;30.19;95292.31;4982850;28;1043;-73
2023/01/14 11:54:18;;;;;;;;;;;;;;;24.58;30.24;95293.94;4990044;28;1321;-72
2023/01/14 11:56:44;;;;;;;;;;;;;;;24.61;30.17;95293.47;4990007;28;1265;-73
2023/01/14 11:59:45;;;;;;;;;;;;;;;24.62;30.12;95294.31;4991332;28;815;-74
2023/01/14 12:02:28;;;;;;;;;;;;;;;24.62;30.13;95294.31;4986688;28;1554;-72
2023/01/14 12:04:57;;;;;;;;;;;;;;;24.70;30.02;95302.03;5000024;28;1366;-73
2023/01/14 12:07:41;;;;;;;;;;;;;;;24.66;30.02;95296.31;4991851;28;1041;-73
2023/01/14 12:10:25;;;;;;;;;;;;;;;24.67;29.89;95297.94;4991116;28;1910;-73
2023/01/14 12:18:45;;;;;;;;;;;;;;;24.67;30.10;95294.44;4991228;28;746;-74
2023/01/14 12:21:12;;;;;;;;;;;;;;;24.67;29.99;95302.50;4991557;28;886;-74
2023/01/14 12:23:45;;;;;;;;;;;;;;;24.67;30.13;95291.75;4991691;28;867;-74
2023/01/14 12:26:33;;;;;;;;;;;;;;;24.67;30.09;95294.44;4981932;28;1206;-74
2023/01/14 12:29:00;;;;;;;;;;;;;;;24.65;30.07;95294.69;4990942;28;1888;-74
2023/01/14 12:31:33;;;;;;;;;;;;;;;24.65;29.96;95296.56;4990854;28;1214;-73
2023/01/14 12:34:21;;;;;;;;;;;;;;;24.66;30.10;95293.63;4991122;28;839;-74
2023/01/14 12:37:00;;;;;;;;;;;;;;;24.65;30.28;95294.69;4985897;28;1612;-74
2023/01/14 12:45:46;;;;;;;;;;;;;;;24.64;30.08;95305.63;4994954;28;700;-74
2023/01/14 12:48:22;;;;;;;;;;;;;;;24.64;30.13;95309.13;4989282;28;1910;-74
2023/01/14 12:50:59;;;;;;;;;;;;;;;24.65;30.10;95312.66;4994576;28;1366;-74
2023/01/14 12:53:27;;;;;;;;;;;;;;;24.65;30.17;95315.34;4993245;28;1183;-74
2023/01/14 12:55:54;;;;;;;;;;;;;;;24.64;30.15;95308.31;4994266;28;839;-74
2023/01/14 12:58:21;;;;;;;;;;;;;;;24.64;30.04;95314.47;4994413;28;847;-73
2023/01/14 13:00:52;;;;;;;;;;;;;;;24.63;30.18;95312.84;4983155;28;1275;-74
2023/01/14 13:03:20;;;;;;;;;;;;;;;24.63;30.13;95320.09;4993898;28;895;-74
2023/01/14 13:05:45;;;;;;;;;;;;;;;24.64;30.13;95314.47;4993014;28;1366;-74
2023/01/14 13:08:20;;;;;;;;;;;;;;;24.64;30.10;95319.03;5025331;28;1188;-74
2023/01/14 13:10:45;;;;;;;;;;;;;;;24.63;30.11;95317.41;4988821;28;1214;-74
2023/01/14 13:13:22;;;;;;;;;;;;;;;24.61;30.06;95320.31;4989152;28;1066;-74
2023/01/14 13:15:47;;;;;;;;;;;;;;;24.61;30.05;95319.50;4993806;28;812;-75
2023/01/14 13:18:31;;;;;;;;;;;;;;;24.61;30.22;95319.50;4993619;28;878;-73
2023/01/14 13:20:57;;;;;;;;;;;;;;;24.62;30.16;95318.47;4993687;28;862;-74
2023/01/14 13:23:37;;;;;;;;;;;;;;;24.61;30.18;95322.16;5015477;28;1177;-73
2023/01/14 13:26:15;;;;;;;;;;;;;;;24.61;30.21;95328.34;4993137;28;926;-74
2023/01/14 13:28:59;;;;;;;;;;;;;;;24.60;30.17;95326.72;4992581;28;1902;-74
2023/01/14 13:31:34;;;;;;;;;;;;;;;24.60;30.36;95329.41;4992581;28;1103;-74
2023/01/14 13:34:18;;;;;;;;;;;;;;;24.58;30.08;95327.97;4984455;28;1156;-73
2023/01/14 13:36:45;;;;;;;;;;;;;;;24.58;30.33;95323.44;4991813;28;1311;-73
2023/01/14 13:39:11;;;;;;;;;;;;;;;24.58;30.20;95327.97;4991796;28;1315;-73
2023/01/14 13:41:38;;;;;;;;;;;;;;;24.59;30.25;95332.28;4992058;28;1339;-72
2023/01/14 13:44:04;;;;;;;;;;;;;;;24.58;30.17;95328.78;5024674;28;1181;-73
2023/01/14 13:46:31;;;;;;;;;;;;;;;24.58;30.24;95328.78;4983847;28;1141;-73
2023/01/14 13:49:01;;;;;;;;;;;;;;;24.57;30.26;95329.84;4993314;28;1906;-73